KCID

The Eastern Iowa Airport

Cedar Rapids, Iowa, USA
METAR KCID 191652Z 17008KT 9SM FEW023 26/21 A2998 RMK AO2 SLP147 T02560211
Observed Flight Rules
Aug-19 @ 16:52 UTC (20 minutes ago) Visual Flight Rules
Wind Visibility Clouds
170° at 8 knots 9 miles
  • Few at 2,300' AGL
Temperatures Readings
Current 26°C / 79°F
Dewpoint 21°C / 70°F
Humidity 74%
Altimeter 29.98" Hg
Pressure 1014.7 hPa
Elevation 264
METAR KCID 191652Z 17008KT 9SM FEW023 26/21 A2998 RMK AO2 SLP147 T02560211
Observed Flight Rules
Aug-19 @ 16:52 UTC
(20 minutes ago)
VFR
Wind Visibility
170° at 8 knots 9 miles
Clouds
  • Few at 2,300' AGL
Temperature Dewpoint
26°C / 79°F 21°C / 70°F
Humidity Altimeter Pressure
74% 29.98" Hg 1014.7 hPa